sensor_id;sensor_type;location;lat;lon;timestamp;pressure;altitude;pressure_sealevel;temperature;humidity
63535;BME280;55128;50.230;18.944;2023-07-29T00:04:59;97888.28;;;16.46;93.98
63535;BME280;55128;50.230;18.944;2023-07-29T00:10:00;97893.53;;;16.36;94.72
63535;BME280;55128;50.230;18.944;2023-07-29T00:15:00;97894.13;;;16.40;94.62
63535;BME280;55128;50.230;18.944;2023-07-29T00:20:00;97889.97;;;16.47;95.18
63535;BME280;55128;50.230;18.944;2023-07-29T00:25:01;97894.88;;;16.42;94.28
63535;BME280;55128;50.230;18.944;2023-07-29T00:30:01;97890.94;;;16.46;94.38
63535;BME280;55128;50.230;18.944;2023-07-29T00:35:02;97895.59;;;16.44;94.33
63535;BME280;55128;50.230;18.944;2023-07-29T00:40:02;97887.66;;;16.54;94.60
63535;BME280;55128;50.230;18.944;2023-07-29T00:45:03;97879.78;;;16.73;92.95
63535;BME280;55128;50.230;18.944;2023-07-29T00:50:07;97876.34;;;16.50;95.67
63535;BME280;55128;50.230;18.944;2023-07-29T00:55:07;97883.34;;;16.62;95.44
63535;BME280;55128;50.230;18.944;2023-07-29T01:00:08;97869.44;;;16.68;94.55
63535;BME280;55128;50.230;18.944;2023-07-29T01:05:12;97870.56;;;16.66;95.60
63535;BME280;55128;50.230;18.944;2023-07-29T01:10:23;97866.59;;;16.81;95.27
63535;BME280;55128;50.230;18.944;2023-07-29T01:15:39;97853.75;;;16.96;95.52
63535;BME280;55128;50.230;18.944;2023-07-29T01:20:43;97860.25;;;16.94;94.84
63535;BME280;55128;50.230;18.944;2023-07-29T01:25:44;97855.72;;;16.94;95.31
63535;BME280;55128;50.230;18.944;2023-07-29T01:30:45;97853.75;;;16.96;94.96
63535;BME280;55128;50.230;18.944;2023-07-29T01:35:54;97862.38;;;17.00;94.74
63535;BME280;55128;50.230;18.944;2023-07-29T01:40:58;97865.13;;;16.88;95.06
63535;BME280;55128;50.230;18.944;2023-07-29T01:46:01;97864.47;;;16.96;94.88
63535;BME280;55128;50.230;18.944;2023-07-29T01:51:02;97876.31;;;16.94;95.08
63535;BME280;55128;50.230;18.944;2023-07-29T01:56:03;97878.81;;;17.06;95.18
63535;BME280;55128;50.230;18.944;2023-07-29T02:01:03;97885.88;;;17.07;95.53
63535;BME280;55128;50.230;18.944;2023-07-29T02:06:03;97885.22;;;17.15;94.87
63535;BME280;55128;50.230;18.944;2023-07-29T02:11:04;97878.31;;;17.13;95.07
63535;BME280;55128;50.230;18.944;2023-07-29T02:16:04;97890.75;;;17.14;95.34
63535;BME280;55128;50.230;18.944;2023-07-29T02:21:05;97880.50;;;17.07;94.99
63535;BME280;55128;50.230;18.944;2023-07-29T02:26:05;97871.38;;;17.10;94.07
63535;BME280;55128;50.230;18.944;2023-07-29T02:31:22;97877.94;;;17.06;94.38
63535;BME280;55128;50.230;18.944;2023-07-29T02:36:23;97876.88;;;17.08;94.67
63535;BME280;55128;50.230;18.944;2023-07-29T02:41:24;97887.31;;;17.12;94.94
63535;BME280;55128;50.230;18.944;2023-07-29T02:46:24;97898.56;;;17.05;93.88
63535;BME280;55128;50.230;18.944;2023-07-29T02:51:24;97898.63;;;16.94;93.93
63535;BME280;55128;50.230;18.944;2023-07-29T02:56:25;97905.00;;;16.82;93.67
63535;BME280;55128;50.230;18.944;2023-07-29T03:01:25;97899.41;;;16.74;93.41
63535;BME280;55128;50.230;18.944;2023-07-29T03:06:26;97895.53;;;16.66;93.78
63535;BME280;55128;50.230;18.944;2023-07-29T03:11:26;97892.13;;;16.64;93.18
63535;BME280;55128;50.230;18.944;2023-07-29T03:16:26;97907.25;;;16.54;93.97
63535;BME280;55128;50.230;18.944;2023-07-29T03:21:27;97899.13;;;16.44;93.63
63535;BME280;55128;50.230;18.944;2023-07-29T03:26:27;97906.44;;;16.54;93.61
63535;BME280;55128;50.230;18.944;2023-07-29T03:31:27;97905.31;;;16.56;94.29
63535;BME280;55128;50.230;18.944;2023-07-29T03:36:28;97911.91;;;16.52;94.14
63535;BME280;55128;50.230;18.944;2023-07-29T03:41:28;97908.19;;;16.64;94.26
63535;BME280;55128;50.230;18.944;2023-07-29T03:46:28;97907.44;;;16.85;95.13
63535;BME280;55128;50.230;18.944;2023-07-29T03:51:29;97912.56;;;16.77;93.77
63535;BME280;55128;50.230;18.944;2023-07-29T03:56:29;97909.59;;;16.91;94.65
63535;BME280;55128;50.230;18.944;2023-07-29T04:01:29;97911.19;;;17.15;94.72
63535;BME280;55128;50.230;18.944;2023-07-29T04:06:29;97921.88;;;17.47;94.03
63535;BME280;55128;50.230;18.944;2023-07-29T04:11:30;97927.97;;;17.70;94.24
63535;BME280;55128;50.230;18.944;2023-07-29T04:16:30;97924.47;;;18.00;92.78
63535;BME280;55128;50.230;18.944;2023-07-29T04:21:30;97929.50;;;18.24;94.32
63535;BME280;55128;50.230;18.944;2023-07-29T04:26:31;97942.78;;;18.76;90.90
63535;BME280;55128;50.230;18.944;2023-07-29T04:31:31;97930.94;;;18.98;91.48
63535;BME280;55128;50.230;18.944;2023-07-29T04:36:31;97930.25;;;19.35;90.33
63535;BME280;55128;50.230;18.944;2023-07-29T04:41:32;97930.91;;;19.57;89.37
63535;BME280;55128;50.230;18.944;2023-07-29T04:46:33;97918.38;;;19.85;89.93
63535;BME280;55128;50.230;18.944;2023-07-29T04:51:33;97938.25;;;20.49;88.70
63535;BME280;55128;50.230;18.944;2023-07-29T04:56:33;97941.31;;;22.24;85.40
63535;BME280;55128;50.230;18.944;2023-07-29T05:01:34;97952.34;;;23.49;80.80
63535;BME280;55128;50.230;18.944;2023-07-29T05:06:34;97954.81;;;24.72;71.28
63535;BME280;55128;50.230;18.944;2023-07-29T05:11:34;97955.09;;;24.86;69.22
63535;BME280;55128;50.230;18.944;2023-07-29T05:16:35;97956.91;;;25.16;67.13
63535;BME280;55128;50.230;18.944;2023-07-29T05:21:36;97965.41;;;25.68;66.75
63535;BME280;55128;50.230;18.944;2023-07-29T05:26:36;97969.19;;;26.49;62.70
63535;BME280;55128;50.230;18.944;2023-07-29T05:31:37;97967.88;;;25.54;64.18
63535;BME280;55128;50.230;18.944;2023-07-29T05:36:37;97966.91;;;25.24;66.17
63535;BME280;55128;50.230;18.944;2023-07-29T05:41:37;97977.75;;;25.32;64.80
63535;BME280;55128;50.230;18.944;2023-07-29T05:46:38;97969.84;;;26.51;65.33
63535;BME280;55128;50.230;18.944;2023-07-29T05:51:38;97978.72;;;27.41;59.41
63535;BME280;55128;50.230;18.944;2023-07-29T05:56:38;97977.06;;;27.25;57.31
63535;BME280;55128;50.230;18.944;2023-07-29T06:01:39;97976.38;;;28.09;57.67
63535;BME280;55128;50.230;18.944;2023-07-29T06:06:39;97977.88;;;29.37;51.49
63535;BME280;55128;50.230;18.944;2023-07-29T06:11:39;97988.88;;;30.57;47.71
63535;BME280;55128;50.230;18.944;2023-07-29T06:16:40;97995.44;;;30.22;48.70
63535;BME280;55128;50.230;18.944;2023-07-29T06:21:40;97993.56;;;30.03;48.97
63535;BME280;55128;50.230;18.944;2023-07-29T06:26:40;97993.31;;;30.31;47.57
63535;BME280;55128;50.230;18.944;2023-07-29T06:31:41;98002.28;;;29.32;50.22
63535;BME280;55128;50.230;18.944;2023-07-29T06:36:41;98006.88;;;29.18;51.21
63535;BME280;55128;50.230;18.944;2023-07-29T06:41:41;98019.41;;;28.64;53.55
63535;BME280;55128;50.230;18.944;2023-07-29T06:46:42;98011.09;;;28.16;53.48
63535;BME280;55128;50.230;18.944;2023-07-29T06:51:42;98009.84;;;27.90;54.99
63535;BME280;55128;50.230;18.944;2023-07-29T06:56:42;98000.41;;;27.71;55.58
63535;BME280;55128;50.230;18.944;2023-07-29T07:01:43;98001.69;;;27.97;57.10
63535;BME280;55128;50.230;18.944;2023-07-29T07:06:43;98010.94;;;28.52;56.36
63535;BME280;55128;50.230;18.944;2023-07-29T07:11:44;98010.16;;;27.80;56.35
63535;BME280;55128;50.230;18.944;2023-07-29T07:16:44;98003.78;;;27.73;56.42
63535;BME280;55128;50.230;18.944;2023-07-29T07:21:44;98001.69;;;26.81;60.60
63535;BME280;55128;50.230;18.944;2023-07-29T07:26:45;97996.47;;;29.55;55.95
63535;BME280;55128;50.230;18.944;2023-07-29T07:31:50;98005.47;;;31.97;47.15
63535;BME280;55128;50.230;18.944;2023-07-29T07:36:52;98011.97;;;31.39;44.98
63535;BME280;55128;50.230;18.944;2023-07-29T07:41:52;98018.91;;;32.63;43.19
63535;BME280;55128;50.230;18.944;2023-07-29T07:46:53;98016.09;;;35.03;37.65
63535;BME280;55128;50.230;18.944;2023-07-29T07:51:56;98020.16;;;34.06;38.72
63535;BME280;55128;50.230;18.944;2023-07-29T07:56:56;98022.94;;;33.34;35.58
63535;BME280;55128;50.230;18.944;2023-07-29T08:01:56;98007.34;;;33.58;39.19
63535;BME280;55128;50.230;18.944;2023-07-29T08:06:57;98000.59;;;33.73;38.35
63535;BME280;55128;50.230;18.944;2023-07-29T08:11:57;97990.50;;;33.36;39.73
63535;BME280;55128;50.230;18.944;2023-07-29T08:16:57;97992.47;;;35.36;36.75
63535;BME280;55128;50.230;18.944;2023-07-29T08:21:58;98002.38;;;38.00;30.95
63535;BME280;55128;50.230;18.944;2023-07-29T08:26:58;98004.38;;;38.85;28.67
63535;BME280;55128;50.230;18.944;2023-07-29T08:31:58;98010.16;;;36.83;30.97
63535;BME280;55128;50.230;18.944;2023-07-29T08:36:59;97999.94;;;35.36;34.36
63535;BME280;55128;50.230;18.944;2023-07-29T08:42:04;97987.97;;;34.54;34.04
63535;BME280;55128;50.230;18.944;2023-07-29T08:47:07;97984.59;;;35.28;33.76
63535;BME280;55128;50.230;18.944;2023-07-29T08:52:09;97980.44;;;34.26;35.51
63535;BME280;55128;50.230;18.944;2023-07-29T08:57:11;97975.63;;;32.51;38.99
63535;BME280;55128;50.230;18.944;2023-07-29T09:02:13;97972.25;;;33.05;38.94
63535;BME280;55128;50.230;18.944;2023-07-29T09:07:14;97985.47;;;36.98;29.51
63535;BME280;55128;50.230;18.944;2023-07-29T09:12:14;97976.47;;;37.89;27.39
63535;BME280;55128;50.230;18.944;2023-07-29T09:17:14;97979.34;;;38.75;28.20
63535;BME280;55128;50.230;18.944;2023-07-29T09:22:19;97966.09;;;35.00;32.96
63535;BME280;55128;50.230;18.944;2023-07-29T09:27:26;97966.53;;;34.09;35.20
63535;BME280;55128;50.230;18.944;2023-07-29T09:32:27;97969.75;;;36.09;31.08
63535;BME280;55128;50.230;18.944;2023-07-29T09:37:27;97959.38;;;35.99;29.69
63535;BME280;55128;50.230;18.944;2023-07-29T09:42:28;97958.22;;;36.68;31.07
63535;BME280;55128;50.230;18.944;2023-07-29T09:47:28;97959.50;;;36.82;28.68
63535;BME280;55128;50.230;18.944;2023-07-29T09:52:30;97947.69;;;33.94;33.59
63535;BME280;55128;50.230;18.944;2023-07-29T09:57:30;97937.00;;;34.69;32.24
63535;BME280;55128;50.230;18.944;2023-07-29T10:02:31;97926.97;;;33.80;32.96
63535;BME280;55128;50.230;18.944;2023-07-29T10:07:33;97932.09;;;33.34;35.18
63535;BME280;55128;50.230;18.944;2023-07-29T10:12:35;97935.59;;;32.19;37.23
63535;BME280;55128;50.230;18.944;2023-07-29T10:17:36;97926.81;;;33.02;36.73
63535;BME280;55128;50.230;18.944;2023-07-29T10:22:41;97919.97;;;31.94;37.12
63535;BME280;55128;50.230;18.944;2023-07-29T10:28:08;97923.38;;;31.64;37.64
63535;BME280;55128;50.230;18.944;2023-07-29T10:33:10;97915.44;;;31.56;38.62
63535;BME280;55128;50.230;18.944;2023-07-29T10:38:11;97914.13;;;30.16;40.76
63535;BME280;55128;50.230;18.944;2023-07-29T10:43:12;97912.88;;;30.84;40.73
63535;BME280;55128;50.230;18.944;2023-07-29T10:53:33;97919.59;;;30.88;40.95
63535;BME280;55128;50.230;18.944;2023-07-29T10:58:34;97909.50;;;30.82;40.79
63535;BME280;55128;50.230;18.944;2023-07-29T11:03:34;97914.13;;;30.88;40.71
63535;BME280;55128;50.230;18.944;2023-07-29T11:08:34;97898.56;;;31.20;39.93
63535;BME280;55128;50.230;18.944;2023-07-29T11:13:37;97903.81;;;30.18;41.24
63535;BME280;55128;50.230;18.944;2023-07-29T11:18:37;97898.03;;;30.53;41.06
63535;BME280;55128;50.230;18.944;2023-07-29T11:23:38;97885.47;;;30.84;40.36
63535;BME280;55128;50.230;18.944;2023-07-29T11:28:39;97888.56;;;30.49;40.93
63535;BME280;55128;50.230;18.944;2023-07-29T11:33:40;97880.97;;;30.58;40.82
63535;BME280;55128;50.230;18.944;2023-07-29T11:38:40;97875.63;;;30.04;41.12
63535;BME280;55128;50.230;18.944;2023-07-29T11:43:41;97870.38;;;29.63;41.10
63535;BME280;55128;50.230;18.944;2023-07-29T11:48:44;97865.13;;;29.95;43.00
63535;BME280;55128;50.230;18.944;2023-07-29T11:53:44;97870.97;;;30.12;43.19
63535;BME280;55128;50.230;18.944;2023-07-29T11:58:45;97869.75;;;29.88;42.27
63535;BME280;55128;50.230;18.944;2023-07-29T12:03:45;97871.78;;;30.19;40.80
63535;BME280;55128;50.230;18.944;2023-07-29T12:08:46;97866.16;;;30.07;41.76
63535;BME280;55128;50.230;18.944;2023-07-29T12:13:47;97859.41;;;30.03;42.29
63535;BME280;55128;50.230;18.944;2023-07-29T12:18:49;97857.97;;;29.80;42.42
63535;BME280;55128;50.230;18.944;2023-07-29T12:23:50;97843.66;;;29.65;42.06
63535;BME280;55128;50.230;18.944;2023-07-29T12:28:51;97836.47;;;29.71;42.17
63535;BME280;55128;50.230;18.944;2023-07-29T12:33:55;97842.19;;;29.29;42.97
63535;BME280;55128;50.230;18.944;2023-07-29T12:38:59;97835.56;;;28.63;44.90
63535;BME280;55128;50.230;18.944;2023-07-29T12:43:59;97831.19;;;28.96;44.55
63535;BME280;55128;50.230;18.944;2023-07-29T12:48:59;97821.34;;;29.15;44.29
63535;BME280;55128;50.230;18.944;2023-07-29T12:54:00;97820.72;;;29.06;43.61
63535;BME280;55128;50.230;18.944;2023-07-29T12:59:01;97815.69;;;29.43;42.60
63535;BME280;55128;50.230;18.944;2023-07-29T13:04:01;97811.50;;;29.14;43.25
63535;BME280;55128;50.230;18.944;2023-07-29T13:09:02;97808.75;;;29.27;41.80
63535;BME280;55128;50.230;18.944;2023-07-29T13:14:03;97815.25;;;29.79;39.82
63535;BME280;55128;50.230;18.944;2023-07-29T13:19:03;97815.91;;;29.35;41.76
63535;BME280;55128;50.230;18.944;2023-07-29T13:24:04;97813.38;;;29.33;41.73
63535;BME280;55128;50.230;18.944;2023-07-29T13:29:04;97807.44;;;29.63;41.15
63535;BME280;55128;50.230;18.944;2023-07-29T13:34:04;97808.31;;;29.37;41.85
63535;BME280;55128;50.230;18.944;2023-07-29T13:39:05;97800.13;;;29.43;42.85
63535;BME280;55128;50.230;18.944;2023-07-29T13:44:06;97790.66;;;29.53;42.57
63535;BME280;55128;50.230;18.944;2023-07-29T13:49:06;97796.50;;;29.70;42.44
